createdAt,value
2024-03-31T00:02:18.246Z,99006.02
2024-03-31T00:07:21.603Z,99001.50
2024-03-31T00:12:25.210Z,99001.16
2024-03-31T00:17:30.646Z,98996.16
2024-03-31T00:22:34.973Z,98995.09
2024-03-31T00:27:38.144Z,98995.13
2024-03-31T00:32:41.381Z,98990.73
2024-03-31T00:37:44.426Z,98989.93
2024-03-31T00:42:47.578Z,98989.56
2024-03-31T00:47:51.217Z,98983.98
2024-03-31T00:52:54.749Z,98979.30
2024-03-31T00:57:59.252Z,98973.54
2024-03-31T01:03:02.912Z,98974.76
2024-03-31T01:08:06.933Z,98980.98
2024-03-31T01:13:10.682Z,98974.58
2024-03-31T01:18:14.283Z,98968.72
2024-03-31T01:23:21.409Z,98970.08
2024-03-31T01:28:24.916Z,98972.50
2024-03-31T01:33:29.433Z,98975.06
2024-03-31T01:38:37.765Z,98972.64
2024-03-31T01:43:48.498Z,98971.12
2024-03-31T01:48:52.022Z,98970.68
2024-03-31T01:53:55.020Z,98969.49
2024-03-31T01:59:01.218Z,98971.55
2024-03-31T02:04:04.948Z,98968.77
2024-03-31T02:09:08.042Z,98965.98
2024-03-31T02:14:11.338Z,98963.83
2024-03-31T02:19:14.492Z,98962.45
2024-03-31T02:24:17.867Z,98965.44
2024-03-31T02:29:21.161Z,98964.48
2024-03-31T02:34:24.390Z,98966.95
2024-03-31T02:39:27.570Z,98968.20
2024-03-31T02:44:30.904Z,98967.65
2024-03-31T02:49:34.321Z,98962.68
2024-03-31T02:54:37.538Z,98962.95
2024-03-31T02:59:40.922Z,98960.67
2024-03-31T03:04:44.229Z,98956.13
2024-03-31T03:09:47.812Z,98954.09
2024-03-31T03:14:55.252Z,98949.23
2024-03-31T03:19:58.778Z,98939.89
2024-03-31T03:25:02.454Z,98939.04
2024-03-31T03:30:06.787Z,98935.17
2024-03-31T03:35:09.938Z,98937.37
2024-03-31T03:40:14.141Z,98933.55
2024-03-31T03:45:17.475Z,98927.46
2024-03-31T03:50:20.779Z,98928.92
2024-03-31T03:55:24.023Z,98928.16
2024-03-31T04:00:27.587Z,98932.11
2024-03-31T04:05:31.016Z,98933.89
2024-03-31T04:10:40.568Z,98929.15
2024-03-31T04:15:44.305Z,98924.52
2024-03-31T04:20:47.606Z,98924.94
2024-03-31T04:25:50.862Z,98921.25
2024-03-31T04:30:54.070Z,98921.74
2024-03-31T04:36:00.050Z,98919.73
2024-03-31T04:41:05.187Z,98921.88
2024-03-31T04:46:09.962Z,98922.09
2024-03-31T04:51:13.332Z,98915.52
2024-03-31T04:56:16.676Z,98917.27
2024-03-31T05:01:19.943Z,98913.21
2024-03-31T05:06:23.651Z,98909.07
2024-03-31T05:11:26.631Z,98902.21
2024-03-31T05:16:29.912Z,98901.02
2024-03-31T05:21:35.701Z,98903.10
2024-03-31T05:26:40.679Z,98899.44
2024-03-31T05:31:44.086Z,98899.17
2024-03-31T05:36:49.575Z,98895.38
2024-03-31T05:41:52.756Z,98892.00
2024-03-31T05:46:55.971Z,98890.64
2024-03-31T05:51:59.234Z,98891.70
2024-03-31T05:57:03.876Z,98893.27
2024-03-31T06:02:07.675Z,98893.05
2024-03-31T06:07:11.508Z,98898.58
2024-03-31T06:12:14.713Z,98902.73
2024-03-31T06:17:19.939Z,98904.05
2024-03-31T06:22:23.281Z,98907.95
2024-03-31T06:27:26.445Z,98906.88
2024-03-31T06:32:30.538Z,98904.80
2024-03-31T06:37:34.015Z,98903.84
2024-03-31T06:42:37.655Z,98909.70
2024-03-31T06:47:41.247Z,98916.04
2024-03-31T06:52:44.583Z,98910.17
2024-03-31T06:57:47.879Z,98909.09
2024-03-31T07:02:51.457Z,98913.66
2024-03-31T07:07:55.333Z,98909.74
2024-03-31T07:13:00.174Z,98904.56
2024-03-31T07:18:11.241Z,98904.44
2024-03-31T07:23:15.494Z,98905.21
2024-03-31T07:28:18.774Z,98900.17
2024-03-31T07:33:22.231Z,98903.91
2024-03-31T07:38:26.599Z,98901.41
2024-03-31T07:43:30.783Z,98905.67
2024-03-31T07:48:34.670Z,98905.16
2024-03-31T07:53:38.631Z,98901.52
2024-03-31T07:58:47.874Z,98908.98
2024-03-31T08:03:54.397Z,98909.65
2024-03-31T08:08:58.829Z,98911.42
2024-03-31T08:14:07.640Z,98915.77
2024-03-31T08:19:12.567Z,98910.70
2024-03-31T08:24:19.506Z,98900.88
2024-03-31T08:29:23.664Z,98902.84
2024-03-31T08:34:31.700Z,98902.02
2024-03-31T08:39:50.593Z,98897.74
2024-03-31T09:41:40.962Z,98857.27
2024-03-31T09:46:45.597Z,98856.73
2024-03-31T09:51:50.388Z,98850.04
2024-03-31T09:57:04.100Z,98844.27
2024-03-31T10:02:09.254Z,98840.75
2024-03-31T10:07:11.906Z,98839.60
2024-03-31T10:12:16.973Z,98840.15
2024-03-31T10:17:20.213Z,98838.46
2024-03-31T10:22:23.798Z,98831.91
2024-03-31T10:27:27.418Z,98825.52
2024-03-31T10:32:31.208Z,98820.80
2024-03-31T10:37:37.824Z,98816.81
2024-03-31T10:42:42.152Z,98814.66
2024-03-31T10:47:45.240Z,98816.08
2024-03-31T10:52:48.002Z,98811.30
2024-03-31T10:57:59.908Z,98812.52
2024-03-31T11:03:08.423Z,98805.55
2024-03-31T11:08:12.446Z,98797.17
2024-03-31T11:13:16.610Z,98785.08
2024-03-31T11:18:18.978Z,98775.28
2024-03-31T11:23:22.400Z,98769.82
2024-03-31T11:28:24.597Z,98769.52
2024-03-31T11:33:28.305Z,98766.73
2024-03-31T11:38:31.426Z,98762.50
2024-03-31T11:43:34.267Z,98761.48
2024-03-31T11:48:36.710Z,98762.62
2024-03-31T11:53:39.391Z,98764.58
2024-03-31T11:58:41.492Z,98756.45
2024-03-31T12:03:43.656Z,98753.16
2024-03-31T12:08:47.721Z,98753.49
2024-03-31T12:13:51.389Z,98750.54
2024-03-31T12:18:53.822Z,98748.85
2024-03-31T12:24:00.552Z,98748.61
2024-03-31T12:29:05.091Z,98737.50
2024-03-31T12:34:08.055Z,98732.65
2024-03-31T12:39:12.404Z,98725.71
2024-03-31T12:44:17.007Z,98714.08
2024-03-31T13:25:37.737Z,98710.09
2024-03-31T13:30:45.794Z,98704.73
2024-03-31T13:35:50.020Z,98702.23
2024-03-31T13:40:53.643Z,98701.80
2024-03-31T13:45:57.431Z,98698.95
2024-03-31T13:51:01.647Z,98701.23
2024-03-31T13:56:05.614Z,98700.36
2024-03-31T14:01:09.441Z,98698.11
2024-03-31T14:06:13.055Z,98699.08
2024-03-31T14:11:17.217Z,98700.67
2024-03-31T14:16:20.829Z,98696.75
2024-03-31T14:21:27.756Z,98697.09
2024-03-31T14:26:31.325Z,98694.91
2024-03-31T14:31:35.665Z,98696.70
2024-03-31T14:36:39.050Z,98695.28
2024-03-31T14:41:42.493Z,98700.45
2024-03-31T14:46:45.778Z,98698.99
2024-03-31T14:51:49.233Z,98690.21
2024-03-31T14:56:53.522Z,98689.61
2024-03-31T15:01:56.961Z,98689.24
2024-03-31T15:07:00.643Z,98686.26
2024-03-31T15:12:06.074Z,98692.66
2024-03-31T15:17:09.528Z,98694.73
2024-03-31T15:22:14.448Z,98691.52
2024-03-31T15:27:26.410Z,98690.58
2024-03-31T15:32:35.653Z,98690.64
2024-03-31T15:37:38.938Z,98686.02
2024-03-31T15:42:42.781Z,98685.27
2024-03-31T15:47:46.377Z,98678.83
2024-03-31T15:52:50.061Z,98678.55
2024-03-31T15:57:53.220Z,98674.77
2024-03-31T16:02:57.339Z,98674.31
2024-03-31T16:08:03.857Z,98676.27
2024-03-31T16:13:07.487Z,98668.26
2024-03-31T16:18:10.694Z,98664.41
2024-03-31T16:23:14.105Z,98663.80
2024-03-31T16:28:17.432Z,98658.91
2024-03-31T16:33:22.406Z,98654.05
2024-03-31T16:38:25.856Z,98652.17
2024-03-31T16:43:30.279Z,98653.17
2024-03-31T16:48:33.803Z,98651.79
2024-03-31T16:53:37.066Z,98645.27
2024-03-31T16:58:42.262Z,98646.96
2024-03-31T17:03:47.626Z,98647.85
2024-03-31T17:08:50.850Z,98642.46
2024-03-31T17:13:56.756Z,98643.81
2024-03-31T17:19:01.458Z,98645.13
2024-03-31T17:24:05.293Z,98646.88
2024-03-31T17:29:36.259Z,98648.83
2024-03-31T17:34:46.765Z,98652.04
2024-03-31T17:40:08.585Z,98653.55
2024-03-31T17:45:19.958Z,98658.65
2024-03-31T17:50:29.465Z,98652.91
2024-03-31T17:55:49.219Z,98651.80
2024-03-31T18:00:52.736Z,98655.23
2024-03-31T18:06:06.473Z,98655.25
2024-03-31T18:11:11.529Z,98655.81
2024-03-31T18:16:15.849Z,98656.08
2024-03-31T18:21:24.330Z,98649.91
2024-03-31T18:26:27.736Z,98647.15
2024-03-31T18:31:42.224Z,98647.50
2024-03-31T18:36:58.494Z,98639.50
2024-03-31T18:42:02.091Z,98633.96
2024-03-31T18:47:05.842Z,98626.91
2024-03-31T18:58:14.952Z,98628.29
2024-03-31T19:03:18.871Z,98629.66
2024-03-31T19:08:25.901Z,98626.67
2024-03-31T19:13:30.975Z,98626.09
2024-03-31T19:18:35.438Z,98626.85
2024-03-31T19:23:43.465Z,98623.17
2024-03-31T19:28:57.752Z,98625.64
2024-03-31T19:34:02.459Z,98630.66
2024-03-31T19:39:06.884Z,98636.22
2024-03-31T19:44:13.126Z,98634.18
2024-03-31T19:49:17.112Z,98630.83
2024-03-31T19:54:22.414Z,98640.92
2024-03-31T19:59:26.191Z,98643.43
2024-03-31T20:04:29.840Z,98643.04
2024-03-31T20:09:37.446Z,98640.14
2024-03-31T20:14:50.200Z,98641.70
2024-03-31T20:19:56.175Z,98644.75
2024-03-31T20:25:03.345Z,98645.23
2024-03-31T20:30:12.684Z,98647.34
2024-03-31T20:35:19.321Z,98643.77
2024-03-31T20:40:25.367Z,98639.59
2024-03-31T20:45:30.860Z,98642.48
2024-03-31T20:50:42.198Z,98649.29
2024-03-31T20:56:10.957Z,98645.00
2024-03-31T21:01:19.820Z,98645.94
2024-03-31T21:06:49.287Z,98648.20
2024-03-31T21:11:57.703Z,98647.18
2024-03-31T21:17:13.493Z,98637.14
2024-03-31T21:22:18.568Z,98639.29
2024-03-31T21:27:25.779Z,98645.84
2024-03-31T21:32:32.178Z,98651.12
2024-03-31T21:37:46.308Z,98652.84
2024-03-31T21:42:57.401Z,98652.52
2024-03-31T21:48:04.734Z,98648.38
2024-03-31T21:53:08.227Z,98653.33
2024-03-31T21:58:15.853Z,98650.30
2024-03-31T22:03:22.090Z,98644.23
2024-03-31T22:08:32.954Z,98642.29
2024-03-31T22:13:37.735Z,98638.11
2024-03-31T22:18:53.451Z,98638.27
2024-03-31T22:23:58.598Z,98635.65
2024-03-31T22:29:01.707Z,98637.48
2024-03-31T22:34:06.655Z,98641.61
2024-03-31T22:39:12.509Z,98641.92
2024-03-31T22:44:17.910Z,98645.73
2024-03-31T22:49:25.358Z,98641.98
2024-03-31T22:54:29.768Z,98644.55
2024-03-31T22:59:44.501Z,98637.96
2024-03-31T23:04:48.558Z,98633.33
2024-03-31T23:09:52.157Z,98628.24
2024-03-31T23:14:58.628Z,98634.55
2024-03-31T23:20:24.884Z,98631.13
2024-03-31T23:25:32.387Z,98633.09
2024-03-31T23:30:46.176Z,98628.23
2024-03-31T23:35:53.514Z,98623.24
2024-03-31T23:40:58.402Z,98629.20
2024-03-31T23:46:05.647Z,98627.55
2024-03-31T23:51:11.510Z,98619.69
2024-03-31T23:56:17.453Z,98621.85
